Time;durP1;ratioP1;P1;durP2;ratioP2;P2;SDS_P1;SDS_P2;PMS_P1;PMS_P2;Temp;Humidity;BMP_temperature;BMP_pressure;BME280_temperature;BME280_humidity;BME280_pressure;Samples;Min_cycle;Max_cycle;Signal;HPM_P1;HPM_P2
2022/08/04 00:02:23;;;;;;;;;;;;;;;;;;10529159;28;20039;-83
2022/08/04 00:07:38;;;;;;;2.72;2.00;;;;;;;;;;10523612;28;19920;-83
2022/08/04 00:13:02;;;;;;;3.25;2.13;;;;;;;;;;10478269;28;20114;-83
2022/08/04 00:18:08;;;;;;;3.60;2.45;;;;;;;;;;10538391;27;20104;-83
2022/08/04 00:23:14;;;;;;;3.10;2.28;;;;;;;;;;10502477;28;20032;-83
2022/08/04 00:28:22;;;;;;;3.88;2.50;;;;;;;;;;10518085;28;20075;-83
2022/08/04 00:33:39;;;;;;;3.03;2.22;;;;;;;;;;10504363;28;20044;-83
2022/08/04 00:38:47;;;;;;;3.58;2.30;;;;;;;;;;10487502;28;20506;-83
2022/08/04 00:44:05;;;;;;;5.68;2.72;;;;;;;;;;10502367;28;20122;-82
2022/08/04 00:49:47;;;;;;;3.80;2.40;;;;;;;;;;10500268;28;20047;-83
2022/08/04 00:55:17;;;;;;;4.80;2.63;;;;;;;;;;10334205;28;20132;-83
2022/08/04 01:00:27;;;;;;;2.92;2.45;;;;;;;;;;10327515;28;20585;-83
2022/08/04 01:05:39;;;;;;;3.35;2.40;;;;;;;;;;10444408;28;20059;-82
2022/08/04 01:10:48;;;;;;;3.03;2.27;;;;;;;;;;10533431;28;20030;-82
2022/08/04 01:16:19;;;;;;;9.68;2.42;;;;;;;;;;10518328;28;20062;-83
2022/08/04 01:21:40;;;;;;;6.47;2.30;;;;;;;;;;10530733;28;20082;-82
2022/08/04 01:32:56;;;;;;;4.18;2.35;;;;;;;;;;10524473;28;20051;-82
2022/08/04 01:38:30;;;;;;;4.07;2.67;;;;;;;;;;10513330;28;20058;-82
2022/08/04 01:43:54;;;;;;;4.05;2.72;;;;;;;;;;10525708;28;20508;-83
2022/08/04 01:49:01;;;;;;;4.32;2.35;;;;;;;;;;10493075;28;20040;-83
2022/08/04 01:54:16;;;;;;;4.25;2.70;;;;;;;;;;10527167;28;20044;-83
2022/08/04 01:59:30;;;;;;;7.88;2.78;;;;;;;;;;10527833;28;20086;-83
2022/08/04 02:04:45;;;;;;;4.68;2.63;;;;;;;;;;10539724;28;20036;-83
2022/08/04 02:10:00;;;;;;;5.45;3.05;;;;;;;;;;10508199;28;20092;-83
2022/08/04 02:15:14;;;;;;;4.65;2.60;;;;;;;;;;10507558;28;20043;-83
2022/08/04 02:20:24;;;;;;;6.03;2.78;;;;;;;;;;10540782;27;20044;-83
2022/08/04 02:25:32;;;;;;;4.63;2.47;;;;;;;;;;10498148;28;20052;-83
2022/08/04 02:30:47;;;;;;;3.22;2.60;;;;;;;;;;10518499;28;20042;-83
2022/08/04 02:35:57;;;;;;;4.45;2.90;;;;;;;;;;10502081;28;20509;-83
2022/08/04 02:41:06;;;;;;;5.63;2.95;;;;;;;;;;10530838;28;20032;-83
2022/08/04 02:46:19;;;;;;;5.18;3.13;;;;;;;;;;10514606;28;20060;-82
2022/08/04 02:51:26;;;;;;;3.05;2.50;;;;;;;;;;10519507;28;20124;-83
2022/08/04 02:56:38;;;;;;;4.25;2.70;;;;;;;;;;10530340;28;20118;-83
2022/08/04 03:01:46;;;;;;;3.85;2.50;;;;;;;;;;10531834;28;20279;-83
2022/08/04 03:07:27;;;;;;;4.13;2.67;;;;;;;;;;10526345;28;20028;-83
2022/08/04 03:12:53;;;;;;;5.03;2.97;;;;;;;;;;10408979;28;20062;-83
2022/08/04 03:18:34;;;;;;;4.68;2.95;;;;;;;;;;10513643;28;20055;-83
2022/08/04 03:23:58;;;;;;;5.05;2.90;;;;;;;;;;10505577;28;20400;-83
2022/08/04 03:29:31;;;;;;;4.28;2.95;;;;;;;;;;10528547;28;20469;-83
2022/08/04 03:35:02;;;;;;;4.40;2.83;;;;;;;;;;10511499;28;20535;-83
2022/08/04 03:40:31;;;;;;;4.05;2.67;;;;;;;;;;10525431;28;20028;-83
2022/08/04 03:45:59;;;;;;;4.13;2.70;;;;;;;;;;10510293;28;20134;-83
2022/08/04 03:57:16;;;;;;;4.60;2.90;;;;;;;;;;10531569;28;20036;-83
2022/08/04 04:02:43;;;;;;;4.93;2.80;;;;;;;;;;10526658;28;20453;-83
2022/08/04 04:08:04;;;;;;;5.07;2.50;;;;;;;;;;10499894;28;20154;-83
2022/08/04 04:13:26;;;;;;;7.47;3.08;;;;;;;;;;10511939;28;20480;-83
2022/08/04 04:18:49;;;;;;;4.63;2.97;;;;;;;;;;10494844;28;20500;-83
2022/08/04 04:24:07;;;;;;;5.30;2.80;;;;;;;;;;10509010;28;20535;-83
2022/08/04 04:29:31;;;;;;;4.75;2.78;;;;;;;;;;10531182;28;20404;-83
2022/08/04 04:34:47;;;;;;;5.18;2.95;;;;;;;;;;10525372;28;20066;-83
2022/08/04 04:40:02;;;;;;;4.60;2.78;;;;;;;;;;10503946;28;20048;-83
2022/08/04 04:45:38;;;;;;;6.45;2.83;;;;;;;;;;10513968;28;20408;-83
2022/08/04 04:50:52;;;;;;;4.80;2.83;;;;;;;;;;10506971;28;20679;-84
2022/08/04 04:56:03;;;;;;;4.13;2.58;;;;;;;;;;10535636;28;20039;-82
2022/08/04 05:01:22;;;;;;;5.70;3.42;;;;;;;;;;10527614;28;20059;-81
2022/08/04 05:06:43;;;;;;;6.32;3.10;;;;;;;;;;10491341;28;20040;-81
2022/08/04 05:12:21;;;;;;;8.82;3.30;;;;;;;;;;10503453;28;20106;-82
2022/08/04 05:17:53;;;;;;;5.18;3.40;;;;;;;;;;10498487;28;20043;-82
2022/08/04 05:23:08;;;;;;;5.15;3.28;;;;;;;;;;10525301;28;20063;-83
2022/08/04 05:28:26;;;;;;;5.55;3.22;;;;;;;;;;10506990;28;20043;-81
2022/08/04 05:33:41;;;;;;;5.10;3.15;;;;;;;;;;10507245;28;20439;-84
2022/08/04 05:44:19;;;;;;;8.48;3.17;;;;;;;;;;10525347;28;20050;-82
2022/08/04 05:49:33;;;;;;;5.60;2.97;;;;;;;;;;10512628;28;20036;-83
2022/08/04 05:54:41;;;;;;;4.72;2.88;;;;;;;;;;10515633;28;20048;-83
2022/08/04 05:59:52;;;;;;;7.25;3.05;;;;;;;;;;10536893;28;20040;-83
2022/08/04 06:05:13;;;;;;;5.93;2.92;;;;;;;;;;10534019;28;20046;-82
2022/08/04 06:10:22;;;;;;;6.63;3.33;;;;;;;;;;10530646;28;20060;-83
2022/08/04 06:15:38;;;;;;;;;;;;;;;;;;10519192;28;20035;-83
2022/08/04 06:20:54;;;;;;;8.68;3.20;;;;;;;;;;10530300;28;19924;-83
2022/08/04 06:26:05;;;;;;;4.53;3.15;;;;;;;;;;10514216;28;20462;-83
2022/08/04 06:31:42;;;;;;;4.93;2.88;;;;;;;;;;10508646;28;20066;-82
2022/08/04 06:37:13;;;;;;;6.03;3.15;;;;;;;;;;10531335;28;20047;-83
2022/08/04 06:42:43;;;;;;;7.13;3.75;;;;;;;;;;10512129;28;20040;-83
2022/08/04 06:47:50;;;;;;;8.00;3.00;;;;;;;;;;10511322;28;20059;-83
2022/08/04 06:53:16;;;;;;;6.57;3.03;;;;;;;;;;10514185;28;20032;-83
2022/08/04 06:58:30;;;;;;;7.40;3.00;;;;;;;;;;10514589;28;20048;-82
2022/08/04 07:03:50;;;;;;;6.47;3.42;;;;;;;;;;10512079;28;20277;-83
2022/08/04 07:08:58;;;;;;;4.32;3.28;;;;;;;;;;10532895;28;20067;-82
2022/08/04 07:14:16;;;;;;;6.25;3.30;;;;;;;;;;10512999;28;20063;-83
2022/08/04 07:19:27;;;;;;;7.85;3.13;;;;;;;;;;10512631;28;20046;-83
2022/08/04 07:24:48;;;;;;;6.28;3.83;;;;;;;;;;10513261;28;20111;-83
2022/08/04 07:29:55;;;;;;;8.75;3.08;;;;;;;;;;10513739;28;20047;-82
2022/08/04 07:41:05;;;;;;;10.40;3.42;;;;;;;;;;10508665;28;20040;-83
2022/08/04 07:46:41;;;;;;;5.60;3.60;;;;;;;;;;10533345;28;20055;-83
2022/08/04 07:51:52;;;;;;;4.03;3.20;;;;;;;;;;10523054;28;20068;-83
2022/08/04 07:57:01;;;;;;;5.07;3.67;;;;;;;;;;10521307;28;20044;-82
2022/08/04 08:02:13;;;;;;;13.38;6.55;;;;;;;;;;10507058;28;20452;-83
2022/08/04 08:07:23;;;;;;;7.38;3.72;;;;;;;;;;10512009;28;20047;-82
2022/08/04 08:12:34;;;;;;;8.15;3.40;;;;;;;;;;10513581;28;20036;-84
2022/08/04 08:18:04;;;;;;;6.07;3.10;;;;;;;;;;10516846;28;20064;-84
2022/08/04 08:28:30;;;;;;;10.52;3.97;;;;;;;;;;10508815;28;20052;-85
2022/08/04 08:33:36;;;;;;;5.53;3.30;;;;;;;;;;10514617;28;20086;-85
2022/08/04 08:38:54;;;;;;;3.33;3.03;;;;;;;;;;10531603;28;20040;-84
2022/08/04 08:44:05;;;;;;;4.68;3.22;;;;;;;;;;10528756;28;20030;-85
2022/08/04 08:49:25;;;;;;;5.00;3.00;;;;;;;;;;10527892;28;20078;-85
2022/08/04 08:55:18;;;;;;;6.15;3.70;;;;;;;;;;10507702;28;20052;-87
2022/08/04 09:00:29;;;;;;;4.40;2.95;;;;;;;;;;10523788;28;20101;-86
2022/08/04 09:05:58;;;;;;;5.53;3.40;;;;;;;;;;10525857;28;20078;-86
2022/08/04 09:11:08;;;;;;;7.82;3.47;;;;;;;;;;10521668;28;20082;-87
2022/08/04 09:16:24;;;;;;;5.25;3.47;;;;;;;;;;10490923;28;20135;-86
2022/08/04 09:21:42;;;;;;;4.22;3.35;;;;;;;;;;10527500;28;20048;-87
2022/08/04 09:26:51;;;;;;;8.32;5.57;;;;;;;;;;10518618;28;20117;-86
2022/08/04 09:32:17;;;;;;;8.20;4.10;;;;;;;;;;10512478;28;20032;-86
2022/08/04 09:37:44;;;;;;;6.50;3.70;;;;;;;;;;10531826;28;20362;-87
2022/08/04 09:43:12;;;;;;;4.05;3.65;;;;;;;;;;10534068;28;20117;-87
2022/08/04 09:48:38;;;;;;;4.95;3.92;;;;;;;;;;10513341;28;20479;-85
2022/08/04 09:53:50;;;;;;;5.03;4.20;;;;;;;;;;10528009;28;20316;-86
2022/08/04 09:59:12;;;;;;;4.00;3.70;;;;;;;;;;10535573;28;20145;-85
2022/08/04 10:04:28;;;;;;;4.47;3.83;;;;;;;;;;10515853;28;20147;-86
2022/08/04 10:10:04;;;;;;;4.97;4.47;;;;;;;;;;10528280;28;20121;-86
2022/08/04 10:15:20;;;;;;;4.93;4.43;;;;;;;;;;10528818;28;20040;-86
2022/08/04 10:20:51;;;;;;;4.20;3.90;;;;;;;;;;10515436;28;20550;-86
2022/08/04 10:26:16;;;;;;;4.50;4.10;;;;;;;;;;10512886;28;20436;-86
2022/08/04 10:31:50;;;;;;;4.75;4.03;;;;;;;;;;10514010;28;20048;-86
2022/08/04 10:37:09;;;;;;;4.13;3.83;;;;;;;;;;10529868;28;20492;-87
2022/08/04 10:42:22;;;;;;;5.07;3.97;;;;;;;;;;10529948;28;20036;-88
2022/08/04 10:47:57;;;;;;;4.15;3.75;;;;;;;;;;10533442;28;20048;-88
2022/08/04 10:53:09;;;;;;;4.95;3.92;;;;;;;;;;10530093;28;20032;-86
2022/08/04 10:58:19;;;;;;;5.18;4.10;;;;;;;;;;10494853;28;20094;-87
2022/08/04 11:03:54;;;;;;;4.13;3.83;;;;;;;;;;10529818;28;20111;-87
2022/08/04 11:09:08;;;;;;;4.63;4.00;;;;;;;;;;10513040;28;20055;-87
2022/08/04 11:14:24;;;;;;;4.10;3.80;;;;;;;;;;10514588;28;20035;-87
2022/08/04 11:19:39;;;;;;;4.07;3.78;;;;;;;;;;10531770;28;20093;-88
2022/08/04 11:24:57;;;;;;;3.80;3.50;;;;;;;;;;10508127;28;20036;-88
2022/08/04 11:30:04;;;;;;;4.68;3.55;;;;;;;;;;10496352;28;20106;-86
2022/08/04 11:35:22;;;;;;;5.55;3.72;;;;;;;;;;10552957;27;20032;-87
2022/08/04 11:40:34;;;;;;;5.13;3.20;;;;;;;;;;10537440;28;20096;-87
2022/08/04 11:45:43;;;;;;;3.65;3.33;;;;;;;;;;10516008;28;20036;-88
2022/08/04 11:50:54;;;;;;;5.25;3.15;;;;;;;;;;10513009;28;20039;-89
2022/08/04 11:56:01;;;;;;;3.50;3.10;;;;;;;;;;10508449;28;20044;-87
2022/08/04 12:01:20;;;;;;;3.40;3.10;;;;;;;;;;10489960;28;20044;-86
2022/08/04 12:06:40;;;;;;;3.22;2.92;;;;;;;;;;10511046;28;20156;-87
2022/08/04 12:12:03;;;;;;;3.03;2.80;;;;;;;;;;10505888;28;20040;-87
2022/08/04 12:17:09;;;;;;;3.00;2.80;;;;;;;;;;10512321;28;20043;-87
2022/08/04 12:22:29;;;;;;;2.90;2.70;;;;;;;;;;10506472;28;20081;-86
2022/08/04 12:27:41;;;;;;;4.68;2.60;;;;;;;;;;10495086;28;20501;-86
2022/08/04 12:33:00;;;;;;;3.25;2.85;;;;;;;;;;10528748;28;20099;-86
2022/08/04 12:38:11;;;;;;;3.45;2.90;;;;;;;;;;10527464;28;20339;-88
2022/08/04 12:43:29;;;;;;;2.70;2.50;;;;;;;;;;10506050;28;20044;-87
2022/08/04 12:48:36;;;;;;;3.80;2.80;;;;;;;;;;10505022;28;20040;-87
2022/08/04 12:53:54;;;;;;;3.45;2.90;;;;;;;;;;10509331;28;20444;-87
2022/08/04 12:59:03;;;;;;;7.05;3.80;;;;;;;;;;10495985;28;20389;-88
2022/08/04 13:04:19;;;;;;;2.92;2.60;;;;;;;;;;10515331;28;20032;-87
2022/08/04 13:09:35;;;;;;;4.18;2.30;;;;;;;;;;10518308;28;20056;-87
2022/08/04 13:14:47;;;;;;;2.67;2.20;;;;;;;;;;10537516;28;20048;-88
2022/08/04 13:19:56;;;;;;;2.20;2.00;;;;;;;;;;10532589;28;20068;-88
2022/08/04 13:25:10;;;;;;;5.25;2.35;;;;;;;;;;10519366;28;20458;-87
2022/08/04 13:30:38;;;;;;;2.33;2.10;;;;;;;;;;10536724;28;20084;-87
2022/08/04 13:35:47;;;;;;;2.75;2.20;;;;;;;;;;10520406;28;20040;-86
2022/08/04 13:41:03;;;;;;;3.38;1.90;;;;;;;;;;10509221;28;20131;-87
2022/08/04 13:46:16;;;;;;;2.10;1.90;;;;;;;;;;10495750;28;20040;-87
2022/08/04 13:51:32;;;;;;;3.75;1.90;;;;;;;;;;10513634;28;20127;-87
2022/08/04 13:57:12;;;;;;;2.85;1.90;;;;;;;;;;10517946;28;20032;-87
2022/08/04 14:02:27;;;;;;;2.58;2.17;;;;;;;;;;10534925;28;20036;-88
2022/08/04 14:07:32;;;;;;;5.95;2.38;;;;;;;;;;10529244;28;20404;-87
2022/08/04 14:12:45;;;;;;;4.20;2.20;;;;;;;;;;10513690;28;20035;-86
2022/08/04 14:17:53;;;;;;;5.05;2.10;;;;;;;;;;10510429;28;20067;-87
2022/08/04 14:23:04;;;;;;;4.35;2.20;;;;;;;;;;10512548;28;20441;-87
2022/08/04 14:28:31;;;;;;;2.22;2.03;;;;;;;;;;10515712;28;20417;-85
2022/08/04 14:33:56;;;;;;;6.50;2.13;;;;;;;;;;10528360;28;20039;-86
2022/08/04 14:39:18;;;;;;;;;;;;;;;;;;10508409;28;20073;-86
2022/08/04 14:44:40;;;;;;;2.17;1.88;;;;;;;;;;10533235;28;20026;-86
2022/08/04 14:55:32;;;;;;;6.07;2.45;;;;;;;;;;10522267;28;20040;-86
2022/08/04 15:00:37;;;;;;;2.60;2.22;;;;;;;;;;10516796;28;20090;-86
2022/08/04 15:05:44;;;;;;;3.70;2.00;;;;;;;;;;10535638;28;20135;-86
2022/08/04 15:11:23;;;;;;;4.50;2.20;;;;;;;;;;10510965;28;20109;-85
2022/08/04 15:16:47;;;;;;;5.18;2.35;;;;;;;;;;10511683;28;20563;-86
2022/08/04 15:21:59;;;;;;;3.38;2.20;;;;;;;;;;10527664;28;20163;-85
2022/08/04 15:27:11;;;;;;;3.13;2.05;;;;;;;;;;10534580;28;20063;-85
2022/08/04 15:32:22;;;;;;;3.28;2.17;;;;;;;;;;10530391;28;20064;-86
2022/08/04 15:37:31;;;;;;;4.05;2.30;;;;;;;;;;10527699;28;20031;-85
2022/08/04 15:42:44;;;;;;;5.22;2.20;;;;;;;;;;10496022;28;20065;-85
2022/08/04 15:48:37;;;;;;;5.65;2.10;;;;;;;;;;10530656;28;20040;-85
2022/08/04 15:54:07;;;;;;;3.92;2.50;;;;;;;;;;10531650;28;20049;-85
2022/08/04 15:59:55;;;;;;;2.97;2.15;;;;;;;;;;10532699;28;20043;-86
2022/08/04 16:05:37;;;;;;;4.70;2.60;;;;;;;;;;10531511;28;20036;-85
2022/08/04 16:10:48;;;;;;;4.10;2.00;;;;;;;;;;10529344;28;20156;-84
2022/08/04 16:15:58;;;;;;;3.58;2.00;;;;;;;;;;10511386;28;20093;-86
2022/08/04 16:21:18;;;;;;;3.13;2.10;;;;;;;;;;10509118;28;20166;-86
2022/08/04 16:26:43;;;;;;;2.72;2.30;;;;;;;;;;10510612;28;20035;-86
2022/08/04 16:32:16;;;;;;;3.35;1.90;;;;;;;;;;10528359;28;20052;-85
2022/08/04 16:37:46;;;;;;;2.60;2.10;;;;;;;;;;10508996;28;20136;-84
2022/08/04 16:43:10;;;;;;;3.72;2.20;;;;;;;;;;10510905;28;20036;-85
2022/08/04 16:48:25;;;;;;;4.05;2.00;;;;;;;;;;10511587;28;20353;-85
2022/08/04 16:53:36;;;;;;;4.15;2.20;;;;;;;;;;10510444;28;20530;-86
2022/08/04 16:59:22;;;;;;;3.10;2.10;;;;;;;;;;10507613;28;20067;-86
2022/08/04 17:04:35;;;;;;;2.13;1.90;;;;;;;;;;10525230;28;20564;-84
2022/08/04 17:10:02;;;;;;;7.82;2.22;;;;;;;;;;10539511;28;20468;-84
2022/08/04 17:15:29;;;;;;;4.60;2.28;;;;;;;;;;10513649;28;20085;-85
2022/08/04 17:20:41;;;;;;;3.65;2.40;;;;;;;;;;10509909;28;20036;-85
2022/08/04 17:26:06;;;;;;;11.75;5.05;;;;;;;;;;10514391;28;20054;-85
2022/08/04 17:31:20;;;;;;;4.65;2.50;;;;;;;;;;10520182;28;20415;-84
2022/08/04 17:36:26;;;;;;;7.45;3.42;;;;;;;;;;10514027;28;20085;-84
2022/08/04 17:41:32;;;;;;;9.02;4.60;;;;;;;;;;10497338;28;20260;-83
2022/08/04 17:46:56;;;;;;;7.90;3.60;;;;;;;;;;10537568;28;20121;-85
2022/08/04 17:52:08;;;;;;;5.47;2.60;;;;;;;;;;10514816;28;20350;-85
2022/08/04 17:57:50;;;;;;;4.50;2.75;;;;;;;;;;10533194;28;20197;-84
2022/08/04 18:03:08;;;;;;;5.25;2.90;;;;;;;;;;10516280;28;20341;-84
2022/08/04 18:08:24;;;;;;;7.53;3.63;;;;;;;;;;10514278;28;20131;-84
2022/08/04 18:13:44;;;;;;;4.15;2.45;;;;;;;;;;10515763;28;20040;-84
2022/08/04 18:19:10;;;;;;;7.78;3.50;;;;;;;;;;10515280;28;20520;-84
2022/08/04 18:24:19;;;;;;;8.43;3.25;;;;;;;;;;10510523;28;20040;-85
2022/08/04 18:29:45;;;;;;;5.88;3.33;;;;;;;;;;10527654;28;20135;-83
2022/08/04 18:35:19;;;;;;;3.53;2.80;;;;;;;;;;10513692;28;20491;-84
2022/08/04 18:40:28;;;;;;;5.60;3.17;;;;;;;;;;10509417;28;20044;-85
2022/08/04 18:46:00;;;;;;;6.43;4.10;;;;;;;;;;10506826;28;20028;-83
2022/08/04 18:51:28;;;;;;;7.47;3.10;;;;;;;;;;10497609;28;20132;-84
2022/08/04 18:56:48;;;;;;;5.75;3.05;;;;;;;;;;10511049;28;20066;-84
2022/08/04 19:02:18;;;;;;;8.52;4.00;;;;;;;;;;10532506;28;20119;-84
2022/08/04 19:07:33;;;;;;;7.68;4.45;;;;;;;;;;10508480;28;20040;-84
2022/08/04 19:13:15;;;;;;;9.63;4.40;;;;;;;;;;10533821;28;20121;-83
2022/08/04 19:18:46;;;;;;;7.53;3.90;;;;;;;;;;10512458;28;20476;-85
2022/08/04 19:24:03;;;;;;;8.63;3.13;;;;;;;;;;10531358;28;20039;-84
2022/08/04 19:29:54;;;;;;;6.38;3.40;;;;;;;;;;10536148;28;20056;-84
2022/08/04 19:35:19;;;;;;;6.30;3.30;;;;;;;;;;10510482;28;20031;-83
2022/08/04 19:40:44;;;;;;;5.57;3.35;;;;;;;;;;10529408;28;20433;-84
2022/08/04 19:46:03;;;;;;;8.63;3.58;;;;;;;;;;10511590;28;20142;-84
2022/08/04 19:51:26;;;;;;;5.80;3.60;;;;;;;;;;10524441;28;20542;-83
2022/08/04 19:56:54;;;;;;;6.68;3.90;;;;;;;;;;10509971;28;20036;-85
2022/08/04 20:02:25;;;;;;;6.32;4.22;;;;;;;;;;10524285;28;20117;-86
2022/08/04 20:13:02;;;;;;;7.07;4.65;;;;;;;;;;10527089;28;20125;-84
2022/08/04 20:18:33;;;;;;;7.20;4.55;;;;;;;;;;10506561;28;20032;-83
2022/08/04 20:24:01;;;;;;;7.63;4.47;;;;;;;;;;10536779;28;20125;-84
2022/08/04 20:29:35;;;;;;;5.03;3.92;;;;;;;;;;10535122;28;20111;-85
2022/08/04 20:35:24;;;;;;;6.28;4.38;;;;;;;;;;10517597;28;20489;-83
2022/08/04 20:40:44;;;;;;;9.85;4.70;;;;;;;;;;10497870;28;20032;-84
2022/08/04 20:45:55;;;;;;;8.02;3.85;;;;;;;;;;10507951;28;20044;-84
2022/08/04 20:57:00;;;;;;;7.50;4.15;;;;;;;;;;10531101;28;20603;-83
2022/08/04 21:02:11;;;;;;;5.47;4.05;;;;;;;;;;10532174;28;20036;-82
2022/08/04 21:07:20;;;;;;;7.38;4.13;;;;;;;;;;10509993;28;20038;-83
2022/08/04 21:12:32;;;;;;;6.45;3.92;;;;;;;;;;10526779;28;20032;-84
2022/08/04 21:17:41;;;;;;;6.07;3.75;;;;;;;;;;10511088;28;20028;-82
2022/08/04 21:23:08;;;;;;;5.07;3.78;;;;;;;;;;10554590;28;20063;-83
2022/08/04 21:34:48;;;;;;;8.13;4.10;;;;;;;;;;10503585;28;20044;-84
2022/08/04 21:40:01;;;;;;;8.73;4.18;;;;;;;;;;10552590;28;20036;-83
2022/08/04 21:50:56;;;;;;;5.95;3.88;;;;;;;;;;10522397;28;20086;-82
2022/08/04 21:56:07;;;;;;;9.27;4.28;;;;;;;;;;10533423;28;20075;-82
2022/08/04 22:01:13;;;;;;;7.80;4.65;;;;;;;;;;10521301;28;20420;-83
2022/08/04 22:12:31;;;;;;;8.15;4.50;;;;;;;;;;10540593;28;20435;-84
2022/08/04 22:17:58;;;;;;;6.90;4.40;;;;;;;;;;10538240;28;20040;-84
2022/08/04 22:23:24;;;;;;;10.18;4.60;;;;;;;;;;10499376;28;20123;-83
2022/08/04 22:28:32;;;;;;;6.00;4.15;;;;;;;;;;10509431;28;20040;-84
2022/08/04 22:33:45;;;;;;;7.05;4.40;;;;;;;;;;10515490;28;20131;-84
2022/08/04 22:39:06;;;;;;;8.00;4.60;;;;;;;;;;10510892;28;20032;-84
2022/08/04 22:44:27;;;;;;;6.97;4.82;;;;;;;;;;10515096;28;20047;-84
2022/08/04 22:49:42;;;;;;;11.02;5.20;;;;;;;;;;10494208;28;20627;-84
2022/08/04 22:55:37;;;;;;;6.75;4.90;;;;;;;;;;10500173;28;20048;-84
2022/08/04 23:01:04;;;;;;;8.27;4.68;;;;;;;;;;10507909;28;20480;-83
2022/08/04 23:06:18;;;;;;;7.13;5.25;;;;;;;;;;10542446;27;20123;-84
2022/08/04 23:11:37;;;;;;;8.70;4.87;;;;;;;;;;10509824;28;20047;-84
2022/08/04 23:16:54;;;;;;;7.00;4.95;;;;;;;;;;10541444;27;20051;-84
2022/08/04 23:22:14;;;;;;;7.70;4.50;;;;;;;;;;10527005;28;20048;-84
2022/08/04 23:27:57;;;;;;;6.73;4.60;;;;;;;;;;10531789;28;20149;-84
2022/08/04 23:33:08;;;;;;;7.47;4.05;;;;;;;;;;10512045;28;20040;-84
2022/08/04 23:38:37;;;;;;;7.97;4.57;;;;;;;;;;10525878;28;20048;-83
2022/08/04 23:43:50;;;;;;;7.55;4.57;;;;;;;;;;10490476;28;20092;-83
2022/08/04 23:49:01;;;;;;;9.15;4.57;;;;;;;;;;10493481;28;20047;-83
2022/08/04 23:54:07;;;;;;;5.95;4.03;;;;;;;;;;10527191;28;20090;-84
2022/08/04 23:59:33;;;;;;;6.97;4.40;;;;;;;;;;10506467;28;20072;-84
